Time;durP1;ratioP1;P1;durP2;ratioP2;P2;SDS_P1;SDS_P2;PMS_P1;PMS_P2;Temp;Humidity;BMP_temperature;BMP_pressure;BME280_temperature;BME280_humidity;BME280_pressure;Samples;Min_cycle;Max_cycle;Signal;HPM_P1;HPM_P2
2022/08/04 00:01:55;;;;;;;7.10;6.50;;;;;;;;;;5079424;28;24505;-46
2022/08/04 00:04:23;;;;;;;7.40;6.80;;;;;;;;;;5073450;28;24491;-46
2022/08/04 00:06:58;;;;;;;7.20;6.60;;;;;;;;;;5070551;28;25044;-46
2022/08/04 00:09:39;;;;;;;7.10;6.50;;;;;;;;;;5069199;28;24510;-45
2022/08/04 00:12:05;;;;;;;6.57;6.07;;;;;;;;;;5069126;28;24419;-45
2022/08/04 00:14:34;;;;;;;6.53;6.03;;;;;;;;;;5072634;28;24978;-45
2022/08/04 00:17:02;;;;;;;6.90;6.40;;;;;;;;;;5083939;28;24518;-46
2022/08/04 00:19:30;;;;;;;6.90;6.40;;;;;;;;;;5079959;28;24437;-45
2022/08/04 00:21:59;;;;;;;6.60;6.10;;;;;;;;;;5083971;28;24422;-45
2022/08/04 00:24:24;;;;;;;7.05;6.45;;;;;;;;;;5066537;28;24943;-46
2022/08/04 00:26:51;;;;;;;7.10;6.60;;;;;;;;;;5068355;28;24427;-46
2022/08/04 00:29:17;;;;;;;7.28;6.68;;;;;;;;;;5066844;28;24504;-45
2022/08/04 00:31:42;;;;;;;7.00;6.50;;;;;;;;;;5074504;28;24434;-45
2022/08/04 00:34:10;;;;;;;8.20;7.40;;;;;;;;;;5087395;28;24390;-45
2022/08/04 00:36:35;;;;;;;6.60;6.10;;;;;;;;;;5077196;28;24414;-45
2022/08/04 00:39:01;;;;;;;7.60;7.00;;;;;;;;;;5087053;28;24753;-45
2022/08/04 00:41:39;;;;;;;7.20;6.60;;;;;;;;;;5087203;28;24451;-45
2022/08/04 00:44:12;;;;;;;7.73;7.10;;;;;;;;;;5086319;28;24681;-45
2022/08/04 00:46:52;;;;;;;6.30;5.80;;;;;;;;;;5081063;28;24431;-46
2022/08/04 00:49:17;;;;;;;6.63;6.13;;;;;;;;;;5082074;28;24478;-45
2022/08/04 00:51:46;;;;;;;7.22;6.65;;;;;;;;;;5087101;28;24606;-45
2022/08/04 00:54:22;;;;;;;6.50;6.00;;;;;;;;;;5087210;28;24475;-44
2022/08/04 00:56:56;;;;;;;7.00;6.40;;;;;;;;;;5087336;28;24402;-45
2022/08/04 00:59:40;;;;;;;6.53;6.03;;;;;;;;;;5087345;28;24526;-45
2022/08/04 01:02:10;;;;;;;7.13;6.53;;;;;;;;;;5078531;28;24421;-45
2022/08/04 01:04:54;;;;;;;7.13;6.55;;;;;;;;;;5068059;28;24513;-44
2022/08/04 01:07:22;;;;;;;6.90;6.40;;;;;;;;;;5068563;28;24423;-45
2022/08/04 01:10:09;;;;;;;7.35;6.75;;;;;;;;;;5079242;28;24979;-46
2022/08/04 01:12:42;;;;;;;6.75;6.25;;;;;;;;;;5079516;28;24429;-45
2022/08/04 01:15:27;;;;;;;6.90;6.40;;;;;;;;;;5068493;28;24471;-50
2022/08/04 01:17:56;;;;;;;7.15;6.55;;;;;;;;;;5076299;28;24418;-46
2022/08/04 01:20:23;;;;;;;7.28;6.68;;;;;;;;;;5084927;28;24394;-46
2022/08/04 01:23:07;;;;;;;6.95;6.35;;;;;;;;;;5074471;28;24434;-45
2022/08/04 01:25:52;;;;;;;7.53;6.93;;;;;;;;;;5073146;28;24450;-45
2022/08/04 01:28:28;;;;;;;6.80;6.20;;;;;;;;;;5073491;28;24575;-44
2022/08/04 01:30:56;;;;;;;6.90;6.30;;;;;;;;;;5081317;28;24464;-45
2022/08/04 01:33:22;;;;;;;6.63;6.13;;;;;;;;;;5085122;28;24418;-45
2022/08/04 01:35:50;;;;;;;6.90;6.30;;;;;;;;;;5084541;28;24962;-45
2022/08/04 01:38:24;;;;;;;7.50;6.90;;;;;;;;;;5076070;28;24949;-45
2022/08/04 01:40:53;;;;;;;6.82;6.22;;;;;;;;;;5077803;28;24814;-45
2022/08/04 01:43:19;;;;;;;6.53;6.03;;;;;;;;;;5076391;28;24479;-47
2022/08/04 01:45:48;;;;;;;7.30;6.70;;;;;;;;;;5077932;28;24508;-46
2022/08/04 01:48:14;;;;;;;7.30;6.60;;;;;;;;;;5079997;28;24538;-44
2022/08/04 01:50:42;;;;;;;7.25;6.55;;;;;;;;;;5071552;28;24461;-46
2022/08/04 01:53:07;;;;;;;6.82;6.22;;;;;;;;;;5068079;28;24828;-45
2022/08/04 01:55:33;;;;;;;7.45;6.78;;;;;;;;;;5073969;28;24419;-45
2022/08/04 01:57:59;;;;;;;7.50;6.70;;;;;;;;;;5080372;28;24430;-46
2022/08/04 02:00:26;;;;;;;7.35;6.75;;;;;;;;;;5079436;28;24437;-46
2022/08/04 02:02:51;;;;;;;6.60;6.10;;;;;;;;;;5089302;28;24465;-45
2022/08/04 02:05:18;;;;;;;7.07;6.47;;;;;;;;;;5088161;28;24450;-46
2022/08/04 02:07:48;;;;;;;7.33;6.63;;;;;;;;;;5076582;28;24445;-46
2022/08/04 02:10:19;;;;;;;6.57;6.07;;;;;;;;;;5080310;28;25067;-46
2022/08/04 02:12:47;;;;;;;7.23;6.53;;;;;;;;;;5070884;28;24425;-45
2022/08/04 02:15:17;;;;;;;6.40;5.90;;;;;;;;;;5073726;28;25054;-46
2022/08/04 02:17:42;;;;;;;7.63;7.03;;;;;;;;;;5080274;28;24475;-46
2022/08/04 02:20:07;;;;;;;6.88;6.38;;;;;;;;;;5089585;28;24475;-45
2022/08/04 02:22:34;;;;;;;7.03;6.43;;;;;;;;;;5074165;28;24928;-45
2022/08/04 02:25:03;;;;;;;6.80;6.30;;;;;;;;;;5079518;28;24426;-46
2022/08/04 02:27:31;;;;;;;6.35;5.82;;;;;;;;;;5081126;28;24476;-45
2022/08/04 02:29:58;;;;;;;7.35;6.75;;;;;;;;;;5087479;28;24897;-46
2022/08/04 02:32:28;;;;;;;6.65;6.15;;;;;;;;;;5081227;28;24782;-45
2022/08/04 02:34:57;;;;;;;7.20;6.30;;;;;;;;;;5090193;28;24436;-45
2022/08/04 02:37:24;;;;;;;8.65;6.07;;;;;;;;;;5081717;28;24423;-45
2022/08/04 02:39:52;;;;;;;6.38;5.97;;;;;;;;;;5075821;28;24476;-43
2022/08/04 02:42:17;;;;;;;6.60;6.10;;;;;;;;;;5072612;28;24426;-44
2022/08/04 02:44:47;;;;;;;7.30;6.70;;;;;;;;;;5070646;28;24430;-46
2022/08/04 02:47:13;;;;;;;7.35;6.85;;;;;;;;;;5076915;28;25022;-46
2022/08/04 02:49:38;;;;;;;6.80;6.20;;;;;;;;;;5083823;28;24438;-45
2022/08/04 02:52:06;;;;;;;7.03;6.37;;;;;;;;;;5083634;28;24567;-45
2022/08/04 02:54:32;;;;;;;7.60;6.90;;;;;;;;;;5070222;28;24968;-45
2022/08/04 02:56:59;;;;;;;7.38;6.78;;;;;;;;;;5075965;28;24430;-45
2022/08/04 02:59:25;;;;;;;7.63;7.03;;;;;;;;;;5082809;28;24425;-44
2022/08/04 03:01:53;;;;;;;7.13;6.63;;;;;;;;;;5078338;28;24422;-44
2022/08/04 03:04:41;;;;;;;6.65;6.22;;;;;;;;;;5080421;28;24506;-44
2022/08/04 03:07:18;;;;;;;6.82;6.32;;;;;;;;;;5078759;28;24419;-44
2022/08/04 03:10:02;;;;;;;6.85;6.30;;;;;;;;;;5080495;28;24818;-44
2022/08/04 03:12:28;;;;;;;7.38;6.78;;;;;;;;;;5081732;28;24450;-44
2022/08/04 03:15:12;;;;;;;6.67;6.17;;;;;;;;;;5082355;28;24454;-45
2022/08/04 03:17:49;;;;;;;6.50;6.00;;;;;;;;;;5069209;28;24422;-45
2022/08/04 03:20:36;;;;;;;7.20;6.60;;;;;;;;;;5087445;28;25014;-45
2022/08/04 03:23:04;;;;;;;6.82;6.22;;;;;;;;;;5084754;28;24491;-45
2022/08/04 03:25:38;;;;;;;6.75;6.25;;;;;;;;;;5083312;28;24529;-45
2022/08/04 03:28:13;;;;;;;7.32;6.30;;;;;;;;;;5078794;28;24499;-46
2022/08/04 03:30:44;;;;;;;7.65;7.05;;;;;;;;;;5080216;28;24529;-45
2022/08/04 03:33:28;;;;;;;7.97;7.30;;;;;;;;;;5082048;28;24495;-46
2022/08/04 03:36:08;;;;;;;6.93;6.28;;;;;;;;;;5072402;28;24414;-46
2022/08/04 03:38:33;;;;;;;7.47;6.78;;;;;;;;;;5069797;28;24391;-46
2022/08/04 03:41:17;;;;;;;6.90;6.40;;;;;;;;;;5073842;28;24438;-45
2022/08/04 03:43:51;;;;;;;6.90;6.30;;;;;;;;;;5078121;28;24523;-46
2022/08/04 03:46:19;;;;;;;6.80;6.30;;;;;;;;;;5079064;28;24426;-46
2022/08/04 03:49:03;;;;;;;7.53;6.83;;;;;;;;;;5075034;28;24425;-46
2022/08/04 03:54:54;;;;;;;6.80;6.20;;;;;;;;;;5086058;28;24413;-45
2022/08/04 03:57:26;;;;;;;6.85;6.25;;;;;;;;;;5082964;28;24498;-45
2022/08/04 04:00:23;;;;;;;6.70;6.10;;;;;;;;;;5072181;28;24497;-45
2022/08/04 04:03:14;;;;;;;6.60;6.00;;;;;;;;;;5063707;28;24442;-45
2022/08/04 04:05:48;;;;;;;7.10;6.50;;;;;;;;;;5070547;28;24991;-45
2022/08/04 04:08:13;;;;;;;6.38;5.88;;;;;;;;;;5079330;28;24422;-45
2022/08/04 04:10:51;;;;;;;6.80;6.28;;;;;;;;;;5071817;28;24433;-45
2022/08/04 04:13:19;;;;;;;5.50;5.10;;;;;;;;;;5068026;28;24475;-45
2022/08/04 04:16:00;;;;;;;6.60;6.00;;;;;;;;;;5081548;28;24563;-45
2022/08/04 04:18:37;;;;;;;5.90;5.30;;;;;;;;;;5073765;28;24770;-44
2022/08/04 04:21:15;;;;;;;6.10;5.50;;;;;;;;;;5067443;28;24891;-44
2022/08/04 04:24:09;;;;;;;5.70;5.20;;;;;;;;;;5084427;28;25073;-46
2022/08/04 04:26:53;;;;;;;6.30;5.80;;;;;;;;;;5070766;28;24472;-46
2022/08/04 04:29:37;;;;;;;5.53;5.03;;;;;;;;;;5074016;28;24476;-44
2022/08/04 04:32:06;;;;;;;6.50;6.00;;;;;;;;;;5077831;28;24434;-45
2022/08/04 04:34:31;;;;;;;5.00;4.60;;;;;;;;;;5068791;28;24414;-45
2022/08/04 04:37:16;;;;;;;5.25;4.75;;;;;;;;;;5067286;28;24399;-45
2022/08/04 04:40:08;;;;;;;5.90;5.40;;;;;;;;;;5083668;28;24414;-45
2022/08/04 04:42:42;;;;;;;5.40;4.90;;;;;;;;;;5087397;28;24385;-45
2022/08/04 04:45:26;;;;;;;5.68;5.35;;;;;;;;;;5076511;28;24477;-45
2022/08/04 04:48:11;;;;;;;5.40;5.00;;;;;;;;;;5079304;28;24494;-46
2022/08/04 04:50:54;;;;;;;4.70;4.40;;;;;;;;;;5081353;28;24434;-45
2022/08/04 04:53:34;;;;;;;5.20;4.80;;;;;;;;;;5086468;28;24432;-45
2022/08/04 04:56:04;;;;;;;6.10;5.50;;;;;;;;;;5080571;28;24491;-46
2022/08/04 04:58:31;;;;;;;5.20;4.80;;;;;;;;;;5077572;28;24434;-45
2022/08/04 05:01:14;;;;;;;5.18;4.78;;;;;;;;;;5075895;28;24438;-46
2022/08/04 05:04:06;;;;;;;4.90;4.50;;;;;;;;;;5066833;28;24487;-46
2022/08/04 05:06:42;;;;;;;5.38;4.97;;;;;;;;;;5073851;28;24424;-46
2022/08/04 05:09:16;;;;;;;5.18;4.88;;;;;;;;;;5071989;28;25158;-46
2022/08/04 05:12:13;;;;;;;4.80;4.40;;;;;;;;;;5082373;28;24470;-45
2022/08/04 05:14:43;;;;;;;5.90;5.00;;;;;;;;;;5082415;28;24426;-45
2022/08/04 05:17:17;;;;;;;4.75;4.35;;;;;;;;;;5069681;28;24438;-46
2022/08/04 05:19:52;;;;;;;5.03;4.70;;;;;;;;;;5083210;28;24467;-45
2022/08/04 05:22:21;;;;;;;4.80;4.50;;;;;;;;;;5082991;28;24422;-45
2022/08/04 05:24:48;;;;;;;4.80;4.40;;;;;;;;;;5079080;28;24422;-45
2022/08/04 05:27:15;;;;;;;4.70;4.30;;;;;;;;;;5078695;28;25014;-45
2022/08/04 05:29:48;;;;;;;4.40;4.00;;;;;;;;;;5080649;28;24430;-46
2022/08/04 05:32:14;;;;;;;4.30;4.00;;;;;;;;;;5082774;28;24798;-45
2022/08/04 05:34:41;;;;;;;5.05;4.55;;;;;;;;;;5079522;28;24602;-45
2022/08/04 05:37:08;;;;;;;4.30;4.00;;;;;;;;;;5070131;28;24895;-45
2022/08/04 05:39:35;;;;;;;4.38;4.07;;;;;;;;;;5068885;28;25366;-45
2022/08/04 05:42:01;;;;;;;4.68;4.30;;;;;;;;;;5079666;28;25178;-45
2022/08/04 05:44:26;;;;;;;4.60;4.30;;;;;;;;;;5083621;28;24491;-45
2022/08/04 05:46:54;;;;;;;4.70;4.40;;;;;;;;;;5077587;28;24438;-45
2022/08/04 05:49:20;;;;;;;4.60;4.20;;;;;;;;;;5084201;28;25046;-45
2022/08/04 05:51:46;;;;;;;4.40;4.10;;;;;;;;;;5076418;28;24446;-45
2022/08/04 05:54:12;;;;;;;4.83;4.43;;;;;;;;;;5086545;28;24409;-45
2022/08/04 05:56:37;;;;;;;4.70;4.40;;;;;;;;;;5069775;28;24487;-45
2022/08/04 05:59:03;;;;;;;4.50;4.10;;;;;;;;;;5081147;28;24479;-45
2022/08/04 06:01:28;;;;;;;4.80;4.50;;;;;;;;;;5077441;28;24516;-45
2022/08/04 06:03:55;;;;;;;4.70;4.40;;;;;;;;;;5074524;28;24431;-45
2022/08/04 06:06:21;;;;;;;4.90;4.60;;;;;;;;;;5075780;28;24427;-44
2022/08/04 06:08:46;;;;;;;4.80;4.40;;;;;;;;;;5080786;28;24441;-46
2022/08/04 06:11:13;;;;;;;4.20;3.90;;;;;;;;;;5080499;28;24737;-46
2022/08/04 06:13:41;;;;;;;5.75;5.35;;;;;;;;;;5075050;28;24480;-46
2022/08/04 06:16:07;;;;;;;4.25;3.95;;;;;;;;;;5084582;28;24430;-46
2022/08/04 06:18:33;;;;;;;5.57;4.53;;;;;;;;;;5080929;28;24548;-46
2022/08/04 06:21:00;;;;;;;5.28;4.78;;;;;;;;;;5066167;28;24444;-45
2022/08/04 06:23:28;;;;;;;5.65;4.68;;;;;;;;;;5069584;28;24967;-46
2022/08/04 06:25:55;;;;;;;4.70;4.40;;;;;;;;;;5069365;28;24509;-45
2022/08/04 06:28:21;;;;;;;4.55;4.25;;;;;;;;;;5069689;28;24403;-45
2022/08/04 06:30:48;;;;;;;4.93;4.63;;;;;;;;;;5087867;28;24847;-45
2022/08/04 06:33:26;;;;;;;4.60;4.28;;;;;;;;;;5089899;28;24395;-47
2022/08/04 06:35:54;;;;;;;5.10;4.80;;;;;;;;;;5089928;28;24394;-46
2022/08/04 06:38:21;;;;;;;5.00;4.70;;;;;;;;;;5089781;28;24397;-46
2022/08/04 06:40:46;;;;;;;4.80;4.40;;;;;;;;;;5089587;28;24406;-46
2022/08/04 06:43:12;;;;;;;4.60;4.30;;;;;;;;;;5089542;28;24553;-46
2022/08/04 06:45:38;;;;;;;4.70;4.40;;;;;;;;;;5089341;28;24409;-46
2022/08/04 06:48:05;;;;;;;4.90;4.60;;;;;;;;;;5089214;28;25038;-46
2022/08/04 06:50:30;;;;;;;5.03;4.72;;;;;;;;;;5089850;28;24454;-44
2022/08/04 06:52:56;;;;;;;5.60;5.10;;;;;;;;;;5089517;28;24434;-46
2022/08/04 06:55:23;;;;;;;5.13;4.72;;;;;;;;;;5089222;28;24455;-44
2022/08/04 06:57:49;;;;;;;5.47;5.00;;;;;;;;;;5089281;28;24489;-46
2022/08/04 07:00:15;;;;;;;5.70;5.20;;;;;;;;;;5089262;28;24662;-45
2022/08/04 07:02:44;;;;;;;5.22;4.82;;;;;;;;;;5089414;28;24410;-45
2022/08/04 07:05:10;;;;;;;5.50;5.00;;;;;;;;;;5089011;28;24455;-46
2022/08/04 07:07:35;;;;;;;4.97;4.57;;;;;;;;;;5089222;28;24410;-46
2022/08/04 07:10:01;;;;;;;4.80;4.40;;;;;;;;;;5088950;28;24589;-45
2022/08/04 07:12:27;;;;;;;4.80;4.50;;;;;;;;;;5088562;28;24497;-45
2022/08/04 07:14:52;;;;;;;4.83;4.53;;;;;;;;;;5088824;28;24405;-46
2022/08/04 07:17:17;;;;;;;5.60;5.10;;;;;;;;;;5089229;28;24478;-46
2022/08/04 07:19:46;;;;;;;4.88;4.53;;;;;;;;;;5089157;28;24477;-46
2022/08/04 07:22:11;;;;;;;5.68;5.28;;;;;;;;;;5088997;28;24390;-46
2022/08/04 07:24:37;;;;;;;5.30;5.00;;;;;;;;;;5088837;28;24474;-46
2022/08/04 07:27:03;;;;;;;5.43;5.03;;;;;;;;;;5088403;28;24402;-44
2022/08/04 07:29:29;;;;;;;5.10;4.70;;;;;;;;;;5088450;28;24410;-45
2022/08/04 07:31:55;;;;;;;5.33;4.93;;;;;;;;;;5089002;28;24744;-46
2022/08/04 07:34:21;;;;;;;5.60;5.20;;;;;;;;;;5088889;28;24445;-43
2022/08/04 07:36:47;;;;;;;5.30;4.90;;;;;;;;;;5088411;28;24811;-44
2022/08/04 07:39:13;;;;;;;5.68;5.28;;;;;;;;;;5088624;28;25013;-45
2022/08/04 07:41:40;;;;;;;5.17;4.80;;;;;;;;;;5088765;28;24543;-45
2022/08/04 07:44:05;;;;;;;5.10;4.70;;;;;;;;;;5088357;28;24553;-45
2022/08/04 07:46:31;;;;;;;5.60;5.10;;;;;;;;;;5088263;28;24508;-45
2022/08/04 07:48:58;;;;;;;5.67;5.27;;;;;;;;;;5088354;28;24410;-45
2022/08/04 07:51:23;;;;;;;5.50;4.90;;;;;;;;;;5088281;28;24959;-45
2022/08/04 07:53:48;;;;;;;5.03;4.73;;;;;;;;;;5087323;28;24405;-44
2022/08/04 07:56:15;;;;;;;5.23;4.93;;;;;;;;;;5088004;28;24406;-45
2022/08/04 07:58:40;;;;;;;5.10;4.80;;;;;;;;;;5087871;28;24394;-45
2022/08/04 08:01:05;;;;;;;5.15;4.85;;;;;;;;;;5087935;28;24409;-44
2022/08/04 08:03:30;;;;;;;4.70;4.40;;;;;;;;;;5087921;28;24402;-46
2022/08/04 08:05:55;;;;;;;5.40;5.00;;;;;;;;;;5088098;28;24931;-45
2022/08/04 08:08:21;;;;;;;5.70;5.20;;;;;;;;;;5088190;28;24676;-45
2022/08/04 08:10:47;;;;;;;5.13;4.73;;;;;;;;;;5087815;28;24413;-45
2022/08/04 08:13:12;;;;;;;4.93;4.60;;;;;;;;;;5087674;28;24396;-46
2022/08/04 08:15:37;;;;;;;5.10;4.70;;;;;;;;;;5087934;28;24416;-46
2022/08/04 08:18:03;;;;;;;4.90;4.60;;;;;;;;;;5087802;28;24525;-45
2022/08/04 08:20:29;;;;;;;4.93;4.63;;;;;;;;;;5087814;28;24405;-45
2022/08/04 08:22:54;;;;;;;4.80;4.40;;;;;;;;;;5087622;28;24402;-45
2022/08/04 08:25:19;;;;;;;5.07;4.57;;;;;;;;;;5087815;28;24401;-45
2022/08/04 08:27:45;;;;;;;5.10;4.70;;;;;;;;;;5087318;28;24412;-46
2022/08/04 08:30:10;;;;;;;4.57;4.28;;;;;;;;;;5087161;28;24449;-45
2022/08/04 08:32:35;;;;;;;4.60;4.30;;;;;;;;;;5087493;28;24398;-45
2022/08/04 08:35:01;;;;;;;4.90;4.50;;;;;;;;;;5087228;28;24553;-45
2022/08/04 08:37:29;;;;;;;4.90;4.60;;;;;;;;;;5087236;28;24414;-45
2022/08/04 08:40:12;;;;;;;4.80;4.50;;;;;;;;;;5087195;28;24501;-45
2022/08/04 08:42:58;;;;;;;4.47;4.10;;;;;;;;;;5087632;28;24430;-46
2022/08/04 08:45:30;;;;;;;4.85;4.45;;;;;;;;;;5087276;28;24501;-46
2022/08/04 08:48:15;;;;;;;5.28;4.78;;;;;;;;;;5085247;28;24468;-46
2022/08/04 08:50:40;;;;;;;4.70;4.40;;;;;;;;;;5087257;28;24410;-45
2022/08/04 08:53:30;;;;;;;4.95;4.50;;;;;;;;;;5087538;28;24397;-45
2022/08/04 08:55:55;;;;;;;4.63;4.32;;;;;;;;;;5087085;28;24381;-44
2022/08/04 08:58:26;;;;;;;4.15;3.95;;;;;;;;;;5087086;28;24414;-45
2022/08/04 09:01:10;;;;;;;4.32;4.03;;;;;;;;;;5087140;28;24402;-47
2022/08/04 09:04:01;;;;;;;4.25;3.95;;;;;;;;;;5087102;28;24400;-44
2022/08/04 09:06:46;;;;;;;4.35;4.05;;;;;;;;;;5083804;28;24488;-45
2022/08/04 09:09:33;;;;;;;4.40;4.10;;;;;;;;;;5086900;28;24403;-46
2022/08/04 09:11:58;;;;;;;4.13;3.90;;;;;;;;;;5087088;28;24988;-45
2022/08/04 09:14:27;;;;;;;3.60;3.40;;;;;;;;;;5087225;28;24405;-46
2022/08/04 09:17:09;;;;;;;3.92;3.63;;;;;;;;;;5086813;28;24483;-46
2022/08/04 09:19:51;;;;;;;4.28;3.80;;;;;;;;;;5086928;28;24444;-45
2022/08/04 09:22:21;;;;;;;3.78;3.47;;;;;;;;;;5086769;28;24428;-45
2022/08/04 09:24:46;;;;;;;3.70;3.50;;;;;;;;;;5086923;28;24401;-46
2022/08/04 09:27:22;;;;;;;4.10;3.70;;;;;;;;;;5086557;28;24390;-46
2022/08/04 09:29:56;;;;;;;3.90;3.60;;;;;;;;;;5086283;28;24974;-46
2022/08/04 09:32:21;;;;;;;4.13;3.83;;;;;;;;;;5086428;28;24379;-45
2022/08/04 09:34:47;;;;;;;3.50;3.30;;;;;;;;;;5086709;28;24390;-46
2022/08/04 09:37:26;;;;;;;4.00;3.70;;;;;;;;;;5084632;28;24394;-45
2022/08/04 09:40:06;;;;;;;4.50;4.10;;;;;;;;;;5086683;28;24417;-46
2022/08/04 09:42:31;;;;;;;4.00;3.70;;;;;;;;;;5086429;28;24417;-46
2022/08/04 09:45:00;;;;;;;3.70;3.50;;;;;;;;;;5086472;28;24387;-45
2022/08/04 09:47:29;;;;;;;4.00;3.70;;;;;;;;;;5086257;28;24429;-45
2022/08/04 09:49:59;;;;;;;3.67;3.40;;;;;;;;;;5086377;28;24417;-45
2022/08/04 09:52:45;;;;;;;3.60;3.30;;;;;;;;;;5086378;28;24895;-46
2022/08/04 09:55:17;;;;;;;3.78;3.47;;;;;;;;;;5086132;28;24882;-46
2022/08/04 09:58:00;;;;;;;3.40;3.10;;;;;;;;;;5084854;28;24430;-46
2022/08/04 10:00:28;;;;;;;3.83;3.42;;;;;;;;;;5086325;28;24951;-46
2022/08/04 10:02:54;;;;;;;3.40;3.20;;;;;;;;;;5086171;28;24394;-46
2022/08/04 10:05:21;;;;;;;3.30;3.10;;;;;;;;;;5086389;28;24397;-46
2022/08/04 10:08:05;;;;;;;3.00;2.80;;;;;;;;;;5086009;28;24985;-46
2022/08/04 10:10:36;;;;;;;3.60;3.10;;;;;;;;;;5086694;28;24422;-46
2022/08/04 10:13:20;;;;;;;3.03;2.83;;;;;;;;;;5086277;28;24520;-46
2022/08/04 10:15:50;;;;;;;3.42;3.22;;;;;;;;;;5087704;28;24580;-45
2022/08/04 10:18:34;;;;;;;3.10;2.90;;;;;;;;;;5087981;28;24389;-45
2022/08/04 10:21:07;;;;;;;3.00;2.80;;;;;;;;;;5090341;28;24413;-46
2022/08/04 10:23:39;;;;;;;3.60;3.30;;;;;;;;;;5090089;28;24509;-46
2022/08/04 10:26:10;;;;;;;4.03;3.73;;;;;;;;;;5089704;28;24405;-46
2022/08/04 10:28:40;;;;;;;3.60;3.40;;;;;;;;;;5089318;28;24410;-46
2022/08/04 10:31:07;;;;;;;3.40;3.10;;;;;;;;;;5089403;28;25017;-46
2022/08/04 10:33:41;;;;;;;4.63;3.50;;;;;;;;;;5090124;28;24398;-46
2022/08/04 10:36:08;;;;;;;3.53;3.20;;;;;;;;;;5089997;28;20727;-45
2022/08/04 10:38:51;;;;;;;3.72;3.42;;;;;;;;;;5089380;28;24385;-45
2022/08/04 10:41:41;;;;;;;3.30;3.00;;;;;;;;;;5089351;28;24414;-45
2022/08/04 10:44:41;;;;;;;3.10;2.80;;;;;;;;;;5089495;28;24452;-46
2022/08/04 10:47:12;;;;;;;3.10;2.90;;;;;;;;;;5066357;28;20761;-46
2022/08/04 10:49:42;;;;;;;5.90;3.50;;;;;;;;;;5085455;28;24761;-46
2022/08/04 10:52:09;;;;;;;3.53;3.33;;;;;;;;;;5089383;28;21126;-44
2022/08/04 10:54:35;;;;;;;3.50;3.30;;;;;;;;;;5089506;28;24481;-46
2022/08/04 10:57:03;;;;;;;3.50;3.20;;;;;;;;;;5089310;28;24482;-46
2022/08/04 10:59:40;;;;;;;3.17;2.88;;;;;;;;;;5089229;28;24389;-46
2022/08/04 11:02:17;;;;;;;3.40;3.20;;;;;;;;;;5089092;28;24944;-46
2022/08/04 11:04:45;;;;;;;3.60;3.40;;;;;;;;;;5089702;28;24451;-44
2022/08/04 11:07:11;;;;;;;3.58;3.35;;;;;;;;;;5089039;28;24398;-45
2022/08/04 11:09:38;;;;;;;3.75;3.45;;;;;;;;;;5089024;28;24444;-46
2022/08/04 11:12:09;;;;;;;3.63;3.40;;;;;;;;;;5088733;28;24474;-45
2022/08/04 11:14:54;;;;;;;3.03;2.90;;;;;;;;;;5088978;28;25044;-45
2022/08/04 11:17:23;;;;;;;4.10;3.28;;;;;;;;;;5088650;28;20776;-45
2022/08/04 11:19:55;;;;;;;3.40;3.20;;;;;;;;;;5089125;28;20724;-45
2022/08/04 11:22:20;;;;;;;3.58;3.28;;;;;;;;;;5089023;28;20789;-45
2022/08/04 11:25:05;;;;;;;3.75;3.30;;;;;;;;;;5088530;28;24414;-46
2022/08/04 11:27:49;;;;;;;3.70;3.40;;;;;;;;;;5087708;28;24959;-46
2022/08/04 11:30:16;;;;;;;3.15;2.95;;;;;;;;;;5088237;28;24430;-46
2022/08/04 11:32:44;;;;;;;3.10;3.00;;;;;;;;;;5088771;28;24912;-45
2022/08/04 11:35:12;;;;;;;3.80;3.50;;;;;;;;;;5088350;28;24993;-46
2022/08/04 11:38:01;;;;;;;7.18;3.30;;;;;;;;;;5088798;28;24402;-45
2022/08/04 11:40:35;;;;;;;3.63;3.33;;;;;;;;;;5088290;28;24532;-46
2022/08/04 11:43:03;;;;;;;3.70;3.40;;;;;;;;;;5088458;28;24429;-44
2022/08/04 11:45:36;;;;;;;3.10;3.00;;;;;;;;;;5088458;28;24493;-45
2022/08/04 11:48:08;;;;;;;3.95;3.65;;;;;;;;;;5087951;28;20804;-45
2022/08/04 11:50:52;;;;;;;3.40;3.20;;;;;;;;;;5088231;28;24471;-45
2022/08/04 11:53:21;;;;;;;3.70;3.40;;;;;;;;;;5088333;28;20721;-45
2022/08/04 11:55:49;;;;;;;3.65;3.35;;;;;;;;;;5088063;28;20735;-45
2022/08/04 11:58:14;;;;;;;3.60;3.30;;;;;;;;;;5087951;28;24979;-46
2022/08/04 12:00:41;;;;;;;4.30;3.70;;;;;;;;;;5088234;28;24405;-45
2022/08/04 12:03:31;;;;;;;3.40;3.20;;;;;;;;;;5087842;28;24982;-46
2022/08/04 12:06:08;;;;;;;3.83;3.50;;;;;;;;;;5088032;28;21289;-46
2022/08/04 12:08:51;;;;;;;3.53;3.33;;;;;;;;;;5087893;28;20724;-46
2022/08/04 12:11:32;;;;;;;3.40;3.20;;;;;;;;;;5087755;28;24811;-46
2022/08/04 12:14:06;;;;;;;3.70;3.40;;;;;;;;;;5088246;28;21019;-46
2022/08/04 12:16:43;;;;;;;3.30;3.10;;;;;;;;;;5087773;28;21293;-45
2022/08/04 12:19:15;;;;;;;3.60;3.40;;;;;;;;;;5087862;28;24923;-45
2022/08/04 12:21:52;;;;;;;4.00;3.70;;;;;;;;;;5088533;28;20757;-46
2022/08/04 12:24:19;;;;;;;3.90;3.60;;;;;;;;;;5087730;28;24497;-46
2022/08/04 12:26:49;;;;;;;4.03;3.63;;;;;;;;;;5087603;28;24933;-46
2022/08/04 12:29:17;;;;;;;3.83;3.53;;;;;;;;;;5086981;28;21121;-47
2022/08/04 12:31:50;;;;;;;3.60;3.40;;;;;;;;;;5087799;28;24422;-46
2022/08/04 12:34:33;;;;;;;3.60;3.40;;;;;;;;;;5087314;28;20724;-46
2022/08/04 12:37:03;;;;;;;3.88;3.58;;;;;;;;;;5087548;28;24390;-45
2022/08/04 12:39:29;;;;;;;3.80;3.60;;;;;;;;;;5087055;28;20773;-46
2022/08/04 12:42:01;;;;;;;3.70;3.40;;;;;;;;;;5087362;28;24398;-46
2022/08/04 12:44:30;;;;;;;3.45;3.25;;;;;;;;;;5087389;28;20784;-46
2022/08/04 12:46:56;;;;;;;3.50;3.30;;;;;;;;;;5087341;28;24441;-46
2022/08/04 12:49:22;;;;;;;3.87;3.30;;;;;;;;;;5087529;28;24740;-46
2022/08/04 12:51:47;;;;;;;4.10;3.80;;;;;;;;;;5087165;28;24995;-46
2022/08/04 12:54:14;;;;;;;3.80;3.50;;;;;;;;;;5086898;28;24752;-46
2022/08/04 12:56:40;;;;;;;4.03;3.63;;;;;;;;;;5087281;28;25255;-46
2022/08/04 12:59:06;;;;;;;4.00;3.70;;;;;;;;;;5086840;28;24486;-46
2022/08/04 13:01:32;;;;;;;3.92;3.67;;;;;;;;;;5087359;28;24454;-46
2022/08/04 13:03:58;;;;;;;4.13;3.83;;;;;;;;;;5087116;28;24500;-46
2022/08/04 13:06:33;;;;;;;3.60;3.40;;;;;;;;;;5087261;28;24922;-46
2022/08/04 13:09:06;;;;;;;3.85;3.55;;;;;;;;;;5086995;28;21116;-46
2022/08/04 13:11:37;;;;;;;4.10;3.70;;;;;;;;;;5087103;28;24421;-46
2022/08/04 13:14:03;;;;;;;3.33;3.03;;;;;;;;;;5086964;28;21048;-47
2022/08/04 13:16:29;;;;;;;3.80;3.60;;;;;;;;;;5086769;28;24956;-45
2022/08/04 13:18:54;;;;;;;3.67;3.47;;;;;;;;;;5086840;28;24393;-46
2022/08/04 13:21:21;;;;;;;4.43;4.03;;;;;;;;;;5086658;28;24421;-45
2022/08/04 13:23:47;;;;;;;4.20;3.80;;;;;;;;;;5086620;28;24443;-46
2022/08/04 13:26:13;;;;;;;4.85;3.80;;;;;;;;;;5086524;28;24456;-46
2022/08/04 13:28:39;;;;;;;4.25;3.85;;;;;;;;;;5086664;28;24803;-46
2022/08/04 13:31:06;;;;;;;3.50;3.30;;;;;;;;;;5086513;28;24441;-45
2022/08/04 13:33:32;;;;;;;3.90;3.60;;;;;;;;;;5086588;28;24395;-45
2022/08/04 13:35:58;;;;;;;3.80;3.50;;;;;;;;;;5086333;28;24414;-46
2022/08/04 13:38:24;;;;;;;4.05;3.75;;;;;;;;;;5086486;28;25362;-46
2022/08/04 13:40:50;;;;;;;3.90;3.70;;;;;;;;;;5086689;28;24440;-46
2022/08/04 13:43:31;;;;;;;4.13;3.83;;;;;;;;;;5086373;28;24405;-46
2022/08/04 13:46:02;;;;;;;4.40;4.10;;;;;;;;;;5086576;28;20816;-44
2022/08/04 13:48:36;;;;;;;4.20;3.90;;;;;;;;;;5085793;28;24606;-44
2022/08/04 13:51:03;;;;;;;4.00;3.80;;;;;;;;;;5088413;28;20768;-46
2022/08/04 13:53:29;;;;;;;3.80;3.60;;;;;;;;;;5090548;28;24908;-45
2022/08/04 13:55:55;;;;;;;4.38;4.00;;;;;;;;;;5090833;28;24456;-46
2022/08/04 13:58:23;;;;;;;4.00;3.80;;;;;;;;;;5090271;28;24383;-45
2022/08/04 14:00:57;;;;;;;3.30;3.20;;;;;;;;;;5090168;28;20726;-47
2022/08/04 14:03:22;;;;;;;3.90;3.70;;;;;;;;;;5090836;28;20795;-45
2022/08/04 14:06:04;;;;;;;3.80;3.50;;;;;;;;;;5090363;28;25095;-46
2022/08/04 14:08:29;;;;;;;3.63;3.38;;;;;;;;;;5090132;28;24974;-45
2022/08/04 14:10:55;;;;;;;4.60;4.20;;;;;;;;;;5089817;28;24438;-45
2022/08/04 14:13:30;;;;;;;4.30;3.90;;;;;;;;;;5089811;28;24414;-46
2022/08/04 14:15:56;;;;;;;3.70;3.50;;;;;;;;;;5090006;28;20782;-46
2022/08/04 14:18:22;;;;;;;4.00;3.70;;;;;;;;;;5089937;28;24418;-45
2022/08/04 14:21:04;;;;;;;4.50;4.20;;;;;;;;;;5087870;28;24799;-44
2022/08/04 14:23:36;;;;;;;4.50;4.20;;;;;;;;;;5090010;28;20787;-45
2022/08/04 14:26:12;;;;;;;4.10;3.90;;;;;;;;;;5089817;28;20769;-46
2022/08/04 14:28:37;;;;;;;4.50;4.17;;;;;;;;;;5089752;28;20770;-46
2022/08/04 14:31:09;;;;;;;4.77;4.37;;;;;;;;;;5089717;28;25035;-46
2022/08/04 14:33:38;;;;;;;4.30;4.00;;;;;;;;;;5089801;28;20747;-46
2022/08/04 14:36:04;;;;;;;4.70;4.00;;;;;;;;;;5090007;28;24929;-46
2022/08/04 14:38:42;;;;;;;3.67;3.37;;;;;;;;;;5089584;28;24908;-46
2022/08/04 14:41:08;;;;;;;3.90;3.70;;;;;;;;;;5089325;28;20772;-46
2022/08/04 14:43:40;;;;;;;3.90;3.70;;;;;;;;;;5089805;28;24402;-45
2022/08/04 14:46:05;;;;;;;4.70;4.30;;;;;;;;;;5089745;28;20765;-46
2022/08/04 14:48:30;;;;;;;3.73;3.53;;;;;;;;;;5088858;28;24773;-46
2022/08/04 14:50:56;;;;;;;3.80;3.60;;;;;;;;;;5089377;28;24446;-46
2022/08/04 14:53:25;;;;;;;4.10;3.80;;;;;;;;;;5089381;28;24409;-46
2022/08/04 14:55:51;;;;;;;4.20;3.90;;;;;;;;;;5089615;28;20727;-46
2022/08/04 14:58:21;;;;;;;4.03;3.72;;;;;;;;;;5088974;28;25012;-46
2022/08/04 15:00:46;;;;;;;4.50;4.10;;;;;;;;;;5088592;28;24421;-46
2022/08/04 15:03:12;;;;;;;3.80;3.60;;;;;;;;;;5087482;28;24414;-46
2022/08/04 15:05:39;;;;;;;5.15;4.10;;;;;;;;;;5089390;28;24398;-46
2022/08/04 15:08:05;;;;;;;4.40;4.00;;;;;;;;;;5088750;28;21278;-45
2022/08/04 15:10:30;;;;;;;4.47;4.07;;;;;;;;;;5089242;28;24461;-46